Time;durP1;ratioP1;P1;durP2;ratioP2;P2;SDS_P1;SDS_P2;PMS_P1;PMS_P2;Temp;Humidity;BMP_temperature;BMP_pressure;BME280_temperature;BME280_humidity;BME280_pressure;Samples;Min_cycle;Max_cycle;Signal;HPM_P1;HPM_P2
2021/08/29 00:02:49;;;;;;;9.45;6.78;;;;;;;11.11;79.59;98710.89;2226838;80;20947;-79
2021/08/29 00:05:50;;;;;;;9.53;6.77;;;;;;;11.16;79.62;98708.31;2226363;79;20956;-79
2021/08/29 00:08:50;;;;;;;8.80;5.93;;;;;;;11.20;79.47;98707.90;2226618;80;20928;-80
2021/08/29 00:11:51;;;;;;;8.70;5.90;;;;;;;11.22;79.28;98715.31;2226494;79;20955;-80
2021/08/29 00:14:52;;;;;;;8.43;6.30;;;;;;;11.15;79.05;98712.66;2226219;80;21035;-79
2021/08/29 00:17:52;;;;;;;13.43;7.00;;;;;;;11.11;79.10;98708.28;2225684;79;20952;-79
2021/08/29 00:20:52;;;;;;;11.03;7.10;;;;;;;11.09;79.22;98703.91;2226514;79;20963;-78
2021/08/29 00:23:53;;;;;;;10.10;7.47;;;;;;;11.07;79.27;98701.71;2226621;79;20920;-78
2021/08/29 00:26:53;;;;;;;12.37;7.77;;;;;;;11.06;79.44;98705.19;2226579;79;20964;-78
2021/08/29 00:29:54;;;;;;;9.63;6.87;;;;;;;11.08;79.74;98707.38;2226763;79;21394;-79
2021/08/29 00:32:55;;;;;;;10.80;7.17;;;;;;;11.12;79.66;98705.23;2226620;79;20972;-79
2021/08/29 00:35:55;;;;;;;8.97;6.90;;;;;;;11.09;79.46;98702.17;2176443;81;21054;-79
2021/08/29 00:38:56;;;;;;;8.80;6.70;;;;;;;11.05;79.38;98696.91;2226745;79;21252;-78
2021/08/29 00:41:56;;;;;;;14.10;7.10;;;;;;;11.00;79.47;98702.53;2226606;79;20920;-79
2021/08/29 00:44:57;;;;;;;13.67;7.40;;;;;;;10.94;79.62;98698.56;2226701;79;21331;-79
2021/08/29 00:47:57;;;;;;;13.60;8.37;;;;;;;10.88;79.60;98698.52;2226706;79;20924;-79
2021/08/29 00:50:58;;;;;;;14.43;7.83;;;;;;;10.85;79.78;98698.06;2226732;79;20916;-79
2021/08/29 00:53:58;;;;;;;12.63;7.40;;;;;;;10.84;79.99;98708.06;2176795;82;20971;-78
2021/08/29 00:56:59;;;;;;;9.17;7.27;;;;;;;10.84;80.01;98704.14;2226492;80;21312;-78
2021/08/29 00:59:59;;;;;;;10.57;7.10;;;;;;;10.84;80.01;98706.32;2226308;79;20960;-79
2021/08/29 01:03:00;;;;;;;10.87;7.53;;;;;;;10.87;80.15;98701.98;2226297;80;20999;-79
2021/08/29 01:06:00;;;;;;;9.23;6.80;;;;;;;10.91;80.07;98701.16;2226019;79;21019;-79
2021/08/29 01:09:01;;;;;;;10.07;6.97;;;;;;;10.86;79.85;98701.11;2226065;79;20960;-79
2021/08/29 01:12:01;;;;;;;12.77;7.33;;;;;;;10.79;79.59;98694.96;2226207;79;20985;-78
2021/08/29 01:15:02;;;;;;;10.03;7.10;;;;;;;10.73;79.53;98695.34;2226036;79;21336;-79
2021/08/29 01:18:02;;;;;;;12.73;6.77;;;;;;;10.65;79.41;98698.31;2226458;79;20960;-79
2021/08/29 01:21:03;;;;;;;8.90;6.90;;;;;;;10.59;79.57;98703.48;2226435;79;20968;-79
2021/08/29 01:24:03;;;;;;;10.03;7.13;;;;;;;10.53;79.63;98700.38;2226243;80;21047;-79
2021/08/29 01:27:04;;;;;;;13.20;7.30;;;;;;;10.48;79.58;98696.84;2226307;79;21019;-80
2021/08/29 01:30:04;;;;;;;9.20;7.27;;;;;;;10.44;79.62;98688.55;2226531;79;20936;-81
2021/08/29 01:33:07;;;;;;;11.43;7.90;;;;;;;10.36;79.52;98689.74;2225919;79;20956;-78
2021/08/29 01:36:07;;;;;;;17.40;7.90;;;;;;;10.32;79.58;98691.00;2258171;79;21526;-79
2021/08/29 01:39:08;;;;;;;16.40;8.10;;;;;;;10.33;80.08;98692.75;2262341;79;20912;-79
2021/08/29 01:42:08;;;;;;;12.70;7.30;;;;;;;10.36;80.16;98691.48;2261948;79;21231;-79
2021/08/29 01:45:09;;;;;;;11.00;7.30;;;;;;;10.35;79.89;98691.03;2262305;79;21300;-79
2021/08/29 01:48:09;;;;;;;10.07;7.10;;;;;;;10.27;79.57;98681.83;2262456;79;20940;-79
2021/08/29 01:51:10;;;;;;;10.23;7.20;;;;;;;10.18;79.42;98683.88;2262337;79;20944;-79
2021/08/29 01:54:10;;;;;;;6.47;5.77;;;;;;;10.11;79.51;98679.45;2262213;79;20955;-78
2021/08/29 01:57:14;;;;;;;14.70;7.33;;;;;;;10.09;80.32;98680.29;2262602;79;20995;-79
2021/08/29 02:00:14;;;;;;;9.97;7.20;;;;;;;10.07;80.00;98678.97;2262377;79;21032;-80
2021/08/29 02:03:15;;;;;;;11.33;7.70;;;;;;;9.94;79.52;98672.30;2262436;79;20932;-80
2021/08/29 02:06:15;;;;;;;9.90;7.07;;;;;;;9.83;79.52;98669.56;2262398;79;21062;-80
2021/08/29 02:09:16;;;;;;;10.53;6.33;;;;;;;9.77;79.63;98671.66;2262283;79;20979;-79
2021/08/29 02:12:16;;;;;;;11.60;7.00;;;;;;;9.70;79.51;98662.45;2262552;79;20947;-79
2021/08/29 02:15:16;;;;;;;11.30;6.10;;;;;;;9.60;79.32;98660.16;2262577;79;20940;-79
2021/08/29 02:18:17;;;;;;;9.13;6.70;;;;;;;9.53;79.29;98663.50;2262467;79;20932;-80
2021/08/29 02:21:17;;;;;;;8.47;6.70;;;;;;;9.45;79.50;98657.32;2262638;78;20920;-79
2021/08/29 02:24:18;;;;;;;11.27;7.27;;;;;;;9.38;79.37;98651.16;2262413;79;20908;-79
2021/08/29 02:27:18;;;;;;;16.77;6.93;;;;;;;9.29;79.30;98651.03;2262615;79;21328;-80
2021/08/29 02:30:19;;;;;;;7.57;6.30;;;;;;;9.24;80.08;98656.60;2262520;79;20928;-79
2021/08/29 02:33:19;;;;;;;11.97;7.10;;;;;;;9.16;79.88;98653.89;2262434;79;20987;-80
2021/08/29 02:36:20;;;;;;;17.67;7.70;;;;;;;9.14;79.87;98651.69;2262103;78;21003;-79
2021/08/29 02:39:20;;;;;;;15.33;7.33;;;;;;;9.12;79.84;98644.70;2262463;79;20971;-79
2021/08/29 02:42:21;;;;;;;19.63;7.50;;;;;;;9.08;79.96;98648.12;2262507;79;20983;-79
2021/08/29 02:45:21;;;;;;;13.23;7.27;;;;;;;9.05;80.22;98644.17;2262170;79;20988;-79
2021/08/29 02:48:22;;;;;;;13.50;7.57;;;;;;;9.04;80.23;98648.50;2261382;79;20963;-79
2021/08/29 02:51:22;;;;;;;10.97;7.90;;;;;;;9.01;80.05;98644.98;2262207;79;20956;-79
2021/08/29 02:54:23;;;;;;;11.27;7.47;;;;;;;8.99;80.11;98650.59;2262263;79;20924;-79
2021/08/29 02:57:23;;;;;;;11.07;7.53;;;;;;;9.02;80.22;98648.03;2262182;79;20951;-79
2021/08/29 03:00:24;;;;;;;9.43;7.97;;;;;;;9.03;80.09;98640.67;2262430;79;20920;-79
2021/08/29 03:03:24;;;;;;;9.33;7.37;;;;;;;8.98;79.76;98640.61;2262388;79;21332;-79
2021/08/29 03:06:25;;;;;;;15.37;8.57;;;;;;;8.90;79.72;98644.39;2262322;79;20995;-80
2021/08/29 03:09:25;;;;;;;13.50;7.30;;;;;;;8.90;80.10;98639.61;2261784;79;20980;-80
2021/08/29 03:12:26;;;;;;;10.33;7.87;;;;;;;8.89;80.47;98643.06;2261998;79;20943;-80
2021/08/29 03:15:26;;;;;;;12.97;7.07;;;;;;;8.87;80.56;98642.17;2262265;79;20936;-78
2021/08/29 03:18:27;;;;;;;11.47;6.93;;;;;;;8.87;80.22;98642.17;2261585;79;21315;-79
2021/08/29 03:21:27;;;;;;;7.67;6.80;;;;;;;8.80;79.83;98638.59;2261298;79;21387;-79
2021/08/29 03:24:28;;;;;;;7.13;6.43;;;;;;;8.72;79.53;98631.09;2261104;79;20979;-80
2021/08/29 03:27:28;;;;;;;12.87;6.37;;;;;;;8.62;79.28;98628.74;2261465;79;20947;-80
2021/08/29 03:30:28;;;;;;;10.23;6.50;;;;;;;8.57;79.36;98634.72;2261445;79;20965;-80
2021/08/29 03:33:29;;;;;;;8.57;6.57;;;;;;;8.58;79.45;98639.08;2262060;79;20999;-79
2021/08/29 03:36:30;;;;;;;11.30;6.37;;;;;;;8.50;79.26;98641.98;2184585;81;21419;-79
2021/08/29 03:39:30;;;;;;;7.43;5.93;;;;;;;8.43;79.09;98654.00;2167133;82;21344;-79
2021/08/29 03:42:31;;;;;;;8.43;6.63;;;;;;;8.38;79.16;98649.15;2141638;83;21283;-79
2021/08/29 03:45:32;;;;;;;11.30;7.13;;;;;;;8.31;79.19;98649.43;2167051;82;20965;-79
2021/08/29 03:48:32;;;;;;;13.27;6.93;;;;;;;8.27;79.43;98654.55;2141344;83;20975;-78
2021/08/29 03:51:34;;;;;;;11.27;6.40;;;;;;;8.27;79.72;98656.73;2166936;82;20988;-79
2021/08/29 03:54:34;;;;;;;13.60;6.63;;;;;;;8.33;79.84;98659.89;2141393;83;20995;-78
2021/08/29 03:57:35;;;;;;;8.57;5.97;;;;;;;8.33;79.72;98654.69;2166919;82;21352;-78
2021/08/29 04:00:35;;;;;;;10.77;6.37;;;;;;;8.33;79.62;98650.80;2141449;83;20979;-78
2021/08/29 04:03:36;;;;;;;8.43;6.10;;;;;;;8.35;79.60;98646.92;2166843;82;20988;-78
2021/08/29 04:06:36;;;;;;;12.23;6.23;;;;;;;8.38;79.50;98644.37;2140838;83;21070;-78
2021/08/29 04:09:37;;;;;;;10.37;6.30;;;;;;;8.37;79.43;98650.00;2166253;82;20948;-78
2021/08/29 04:12:40;;;;;;;11.23;6.83;;;;;;;8.41;79.47;98654.83;2140996;83;21419;-78
2021/08/29 04:15:41;;;;;;;11.87;6.90;;;;;;;8.42;79.38;98642.27;2166692;82;21459;-79
2021/08/29 04:18:41;;;;;;;11.03;6.23;;;;;;;8.41;79.20;98642.70;2141299;83;20964;-79
2021/08/29 04:21:42;;;;;;;10.03;6.23;;;;;;;8.39;79.15;98643.52;2166899;82;20972;-79
2021/08/29 04:24:42;;;;;;;10.10;6.40;;;;;;;8.39;79.29;98635.72;2141258;83;20971;-78
2021/08/29 04:27:43;;;;;;;10.20;6.47;;;;;;;8.45;79.49;98640.59;2166766;82;20981;-78
2021/08/29 04:30:43;;;;;;;10.27;5.93;;;;;;;8.55;79.50;98641.63;2141507;83;20955;-80
2021/08/29 04:33:44;;;;;;;9.03;6.20;;;;;;;8.60;79.36;98647.78;2166866;82;21399;-80
2021/08/29 04:36:44;;;;;;;11.33;6.90;;;;;;;8.65;79.19;98644.83;2157987;81;21024;-78
2021/08/29 04:39:45;;;;;;;12.17;7.57;;;;;;;8.75;79.60;98650.66;2171702;82;21008;-78
2021/08/29 04:42:45;;;;;;;9.83;7.07;;;;;;;8.89;79.68;98652.18;2161623;82;20996;-79
2021/08/29 04:45:46;;;;;;;9.60;7.40;;;;;;;8.99;79.49;98647.98;2170590;82;20933;-79
2021/08/29 04:48:46;;;;;;;24.17;8.10;;;;;;;9.10;79.53;98650.32;2161362;82;20988;-79
2021/08/29 04:51:47;;;;;;;11.47;7.43;;;;;;;9.25;79.48;98644.03;2170334;82;20953;-79
2021/08/29 04:54:47;;;;;;;8.87;6.70;;;;;;;9.40;79.42;98635.54;2160856;82;21340;-79
2021/08/29 04:57:48;;;;;;;10.33;6.50;;;;;;;9.51;79.24;98638.73;2170259;82;20984;-78
2021/08/29 05:00:48;;;;;;;12.37;6.90;;;;;;;9.63;79.28;98639.77;2161718;82;20957;-80
2021/08/29 05:03:49;;;;;;;21.77;10.03;;;;;;;9.78;79.30;98645.17;2171129;82;20976;-79
2021/08/29 05:06:49;;;;;;;22.80;11.20;;;;;;;9.86;79.21;98642.22;2201165;80;20996;-79
2021/08/29 05:09:50;;;;;;;18.87;10.80;;;;;;;9.99;79.14;98646.72;2170802;82;20940;-79
2021/08/29 05:12:52;;;;;;;19.27;9.37;;;;;;;10.11;79.01;98652.06;2201579;80;20984;-80
2021/08/29 05:15:52;;;;;;;22.17;13.20;;;;;;;10.21;79.01;98651.77;2201695;81;21383;-80
2021/08/29 05:18:53;;;;;;;24.03;14.63;;;;;;;10.32;78.86;98651.86;2171362;82;20956;-79
2021/08/29 05:21:53;;;;;;;26.93;15.67;;;;;;;10.38;79.09;98647.58;2201339;80;21347;-80
2021/08/29 05:24:54;;;;;;;27.00;13.03;;;;;;;10.44;79.18;98637.66;2170277;82;20956;-78
2021/08/29 05:27:54;;;;;;;20.83;13.87;;;;;;;10.52;79.29;98639.48;2201802;80;20988;-79
2021/08/29 05:30:54;;;;;;;30.57;17.83;;;;;;;10.65;79.34;98640.89;2171090;82;20972;-79
2021/08/29 05:33:55;;;;;;;33.60;21.00;;;;;;;10.80;79.44;98639.27;2200709;81;20975;-79
2021/08/29 05:36:55;;;;;;;38.97;23.77;;;;;;;11.03;79.41;98638.56;2167122;81;21407;-79
2021/08/29 05:39:56;;;;;;;31.63;17.73;;;;;;;11.16;79.13;98633.86;2180537;82;21030;-78
2021/08/29 05:42:56;;;;;;;35.30;21.20;;;;;;;11.22;78.87;98622.14;2181021;81;20964;-78
2021/08/29 05:45:57;;;;;;;34.33;22.20;;;;;;;11.34;78.88;98632.69;2180663;81;20948;-78
2021/08/29 05:48:57;;;;;;;28.77;18.20;;;;;;;11.42;78.85;98634.91;2180978;81;20967;-78
2021/08/29 05:51:58;;;;;;;26.47;18.03;;;;;;;11.47;78.68;98643.64;2180573;82;21375;-79
2021/08/29 05:54:58;;;;;;;23.47;16.27;;;;;;;11.56;78.46;98645.43;2180086;81;20986;-79
2021/08/29 05:57:59;;;;;;;26.10;17.75;;;;;;;11.64;78.36;98651.56;2180303;82;20976;-79
2021/08/29 06:01:00;;;;;;;26.93;16.93;;;;;;;11.73;78.37;98655.53;2180640;82;20995;-79
2021/08/29 06:04:00;;;;;;;24.20;16.60;;;;;;;11.81;78.26;98658.20;2179924;81;20983;-79
2021/08/29 06:07:01;;;;;;;25.05;17.42;;;;;;;11.89;78.18;98651.27;2179267;81;21058;-79
2021/08/29 06:10:01;;;;;;;26.02;17.02;;;;;;;12.01;78.01;98652.61;2180006;82;20945;-79
2021/08/29 06:13:02;;;;;;;27.22;18.45;;;;;;;12.18;78.31;98650.07;2179582;81;21011;-80
2021/08/29 06:16:02;;;;;;;27.60;17.65;;;;;;;12.42;78.23;98646.63;2179987;82;21316;-79
2021/08/29 06:19:03;;;;;;;28.15;18.92;;;;;;;12.65;77.91;98642.28;2180543;81;21414;-80
2021/08/29 06:22:03;;;;;;;24.70;18.00;;;;;;;12.81;77.31;98649.70;2180728;81;20960;-79
2021/08/29 06:25:04;;;;;;;27.05;20.48;;;;;;;12.99;77.11;98637.02;2180404;82;21011;-79
2021/08/29 06:28:04;;;;;;;30.15;21.93;;;;;;;13.25;76.81;98639.23;2179666;82;21007;-80
2021/08/29 06:31:05;;;;;;;32.23;24.43;;;;;;;13.45;76.43;98641.80;2180105;82;21424;-79
2021/08/29 06:34:05;;;;;;;30.68;22.90;;;;;;;13.64;76.09;98644.80;2179761;82;20964;-79
2021/08/29 06:37:06;;;;;;;32.70;22.67;;;;;;;13.78;75.83;98640.80;2177114;80;21008;-79
2021/08/29 06:40:07;;;;;;;29.95;20.80;;;;;;;13.91;75.65;98635.97;2176228;82;21015;-80
2021/08/29 06:43:07;;;;;;;27.85;22.02;;;;;;;14.15;75.67;98640.66;2176048;82;21311;-79
2021/08/29 06:46:08;;;;;;;27.37;20.35;;;;;;;14.32;75.21;98634.86;2176297;82;20971;-80
2021/08/29 06:49:08;;;;;;;26.95;19.17;;;;;;;14.49;74.97;98636.97;2176242;82;20924;-79
2021/08/29 06:52:09;;;;;;;27.67;20.10;;;;;;;14.56;74.53;98636.03;2176607;82;21392;-79
2021/08/29 06:55:09;;;;;;;25.60;19.42;;;;;;;14.61;74.48;98639.50;2176670;82;20976;-79
2021/08/29 06:58:10;;;;;;;29.00;21.30;;;;;;;14.70;74.64;98646.88;2176874;82;21028;-80
2021/08/29 07:01:10;;;;;;;22.27;19.65;;;;;;;14.78;74.56;98643.78;2176212;82;21019;-80
2021/08/29 07:04:11;;;;;;;27.50;21.07;;;;;;;14.83;74.44;98641.55;2176691;82;20992;-79
2021/08/29 07:07:12;;;;;;;21.87;18.90;;;;;;;14.87;74.25;98646.33;2176822;82;21023;-80
2021/08/29 07:10:12;;;;;;;25.52;20.02;;;;;;;14.93;74.46;98644.52;2176562;82;21388;-80
2021/08/29 07:13:12;;;;;;;25.60;18.40;;;;;;;14.96;74.24;98658.08;2176258;82;21382;-80
2021/08/29 07:16:13;;;;;;;27.05;19.80;;;;;;;15.05;74.32;98657.13;2176720;82;20995;-80
2021/08/29 07:19:13;;;;;;;24.77;19.30;;;;;;;15.11;74.22;98653.13;2176534;82;21019;-80
2021/08/29 07:22:14;;;;;;;24.12;18.45;;;;;;;15.16;74.44;98660.09;2176269;82;20984;-80
2021/08/29 07:25:14;;;;;;;25.77;18.30;;;;;;;15.24;74.53;98665.27;2176501;82;21387;-79
2021/08/29 07:28:15;;;;;;;23.90;18.17;;;;;;;15.26;74.72;98663.05;2176301;82;20960;-82
2021/08/29 07:31:15;;;;;;;23.27;16.80;;;;;;;15.29;74.82;98659.08;2176582;82;20996;-80
2021/08/29 07:34:16;;;;;;;23.10;16.57;;;;;;;15.40;74.83;98659.41;2176496;82;20992;-80
2021/08/29 07:37:17;;;;;;;21.07;15.53;;;;;;;15.57;74.59;98651.80;2179141;81;21420;-81
2021/08/29 07:40:19;;;;;;;20.60;15.43;;;;;;;15.57;74.59;98651.80;2180249;82;20967;-80
2021/08/29 07:43:20;;;;;;;26.35;17.80;;;;;;;15.69;74.23;98648.63;2180687;81;21408;-80
2021/08/29 07:46:24;;;;;;;21.75;16.80;;;;;;;15.76;73.94;98653.80;2180292;81;20968;-80
2021/08/29 08:21:48;;;;;;;18.05;13.95;;;;;;;17.56;68.60;98631.28;2239156;79;22918;-80
2021/08/29 08:24:49;;;;;;;15.88;12.82;;;;;;;17.48;68.96;98632.75;2189841;81;21341;-79
2021/08/29 08:27:49;;;;;;;15.60;14.00;;;;;;;17.43;68.59;98633.29;2189666;81;21004;-79
2021/08/29 08:30:50;;;;;;;16.75;14.85;;;;;;;17.41;68.89;98635.09;2189647;81;21007;-79
2021/08/29 08:33:50;;;;;;;17.12;14.70;;;;;;;17.52;68.91;98640.16;2190487;81;21371;-79
2021/08/29 08:36:51;;;;;;;16.17;14.20;;;;;;;17.56;68.95;98633.92;2190423;81;20968;-79
2021/08/29 08:39:52;;;;;;;15.03;13.53;;;;;;;17.63;68.71;98624.98;2189920;81;21041;-79
2021/08/29 08:42:52;;;;;;;13.25;11.88;;;;;;;17.69;68.62;98627.53;2190623;81;20963;-81
2021/08/29 08:45:53;;;;;;;13.32;12.07;;;;;;;17.77;68.40;98624.73;2190411;81;21014;-80
2021/08/29 08:48:53;;;;;;;14.35;12.15;;;;;;;17.88;68.61;98626.70;2190022;81;20940;-81
2021/08/29 08:51:54;;;;;;;16.37;12.00;;;;;;;18.06;68.57;98630.72;2189566;81;21367;-81
2021/08/29 08:54:54;;;;;;;12.58;9.98;;;;;;;18.14;68.23;98634.94;2190582;81;20971;-81
2021/08/29 08:57:55;;;;;;;11.83;10.32;;;;;;;18.26;67.40;98629.87;2190131;81;20940;-81
2021/08/29 09:00:55;;;;;;;12.30;9.38;;;;;;;18.39;66.98;98632.64;2190082;81;21006;-81
2021/08/29 09:03:56;;;;;;;12.15;9.35;;;;;;;18.61;65.80;98624.22;2190370;81;21004;-82
2021/08/29 09:06:56;;;;;;;12.13;8.78;;;;;;;18.72;66.28;98624.41;2190642;81;21374;-80
2021/08/29 09:09:57;;;;;;;10.00;8.20;;;;;;;18.89;65.39;98627.95;2190484;81;21317;-80
2021/08/29 09:12:57;;;;;;;9.03;8.13;;;;;;;18.88;64.71;98622.70;2190383;81;20936;-81
2021/08/29 09:15:58;;;;;;;8.68;7.60;;;;;;;18.99;65.51;98618.02;2191119;81;20991;-79
2021/08/29 09:18:58;;;;;;;10.70;6.87;;;;;;;19.08;64.67;98617.36;2190399;81;20955;-79
2021/08/29 09:21:59;;;;;;;8.83;7.55;;;;;;;19.01;63.69;98613.09;2174457;81;20969;-81
2021/08/29 09:24:59;;;;;;;8.08;7.03;;;;;;;18.87;63.53;98612.58;2173998;82;21399;-80
2021/08/29 09:28:00;;;;;;;8.05;7.20;;;;;;;18.84;64.13;98612.66;2173338;81;21265;-80
2021/08/29 09:31:01;;;;;;;10.23;8.13;;;;;;;18.88;64.90;98606.84;2173582;81;20988;-81
2021/08/29 09:34:01;;;;;;;9.85;8.13;;;;;;;18.84;64.46;98608.69;2173307;81;20987;-80
2021/08/29 09:37:02;;;;;;;9.08;7.87;;;;;;;18.74;64.49;98613.79;2173311;81;20961;-79
2021/08/29 09:40:02;;;;;;;10.45;7.15;;;;;;;18.75;64.92;98616.85;2173044;81;21036;-80
2021/08/29 09:43:03;;;;;;;7.90;7.10;;;;;;;18.91;65.17;98616.88;2173025;81;21003;-80
2021/08/29 09:46:03;;;;;;;10.03;7.78;;;;;;;19.10;65.11;98619.95;2173152;81;20969;-79
2021/08/29 09:49:04;;;;;;;9.08;7.65;;;;;;;19.16;64.50;98616.28;2173230;81;20921;-79
2021/08/29 09:52:04;;;;;;;8.23;6.65;;;;;;;19.14;64.94;98622.07;2173513;81;21349;-79
2021/08/29 09:55:05;;;;;;;10.05;6.90;;;;;;;19.27;64.64;98619.52;2173597;82;20957;-79
2021/08/29 09:58:05;;;;;;;8.85;7.28;;;;;;;19.39;64.95;98623.16;2173279;82;20925;-81
2021/08/29 10:01:09;;;;;;;8.35;6.90;;;;;;;19.58;65.31;98620.45;2173392;81;20945;-80
2021/08/29 10:04:10;;;;;;;7.85;7.10;;;;;;;19.68;64.99;98620.60;2173401;82;20933;-81
2021/08/29 10:07:10;;;;;;;7.25;6.58;;;;;;;19.77;64.65;98621.25;2173484;81;20957;-81
2021/08/29 10:10:11;;;;;;;9.80;7.10;;;;;;;19.67;63.76;98609.59;2173677;81;20957;-80
2021/08/29 10:13:11;;;;;;;9.15;7.65;;;;;;;19.59;63.11;98610.27;2173279;81;20953;-80
2021/08/29 10:16:12;;;;;;;8.18;7.37;;;;;;;19.73;64.05;98608.09;2173389;81;21785;-79
2021/08/29 10:19:12;;;;;;;8.85;7.78;;;;;;;19.91;63.49;98606.69;2173235;82;20976;-80
2021/08/29 10:22:13;;;;;;;8.70;7.90;;;;;;;20.04;62.73;98605.45;2173369;81;21043;-80
2021/08/29 10:25:13;;;;;;;8.63;7.78;;;;;;;20.00;62.72;98608.23;2173410;82;20980;-80
2021/08/29 10:28:14;;;;;;;9.28;8.38;;;;;;;20.16;62.57;98602.02;2172905;81;20997;-81
2021/08/29 10:31:14;;;;;;;9.93;8.00;;;;;;;20.05;61.76;98601.02;2172923;81;21407;-80
2021/08/29 10:34:15;;;;;;;8.45;7.67;;;;;;;20.05;61.76;98601.02;2173387;81;20988;-81
2021/08/29 10:37:15;;;;;;;8.78;7.87;;;;;;;19.91;62.30;98601.39;2173219;81;20968;-81
2021/08/29 10:40:16;;;;;;;10.78;7.33;;;;;;;20.14;62.59;98599.41;2173241;82;21320;-80
2021/08/29 10:43:17;;;;;;;9.00;7.47;;;;;;;20.35;61.03;98601.85;2173158;81;21343;-81
2021/08/29 10:46:17;;;;;;;7.45;6.65;;;;;;;20.47;60.62;98600.63;2173118;82;20988;-80
2021/08/29 10:49:18;;;;;;;8.38;6.92;;;;;;;20.66;60.09;98591.16;2173412;81;20950;-81
2021/08/29 10:52:18;;;;;;;7.97;7.17;;;;;;;20.72;59.17;98586.98;2173537;81;21292;-82
2021/08/29 10:55:18;;;;;;;8.70;7.05;;;;;;;20.62;59.54;98581.58;2172905;82;20933;-80
2021/08/29 10:58:19;;;;;;;6.55;5.72;;;;;;;20.68;60.12;98586.68;2172974;81;21331;-80
2021/08/29 11:01:19;;;;;;;4.65;4.25;;;;;;;20.77;59.80;98574.44;2173378;81;21368;-80
2021/08/29 11:04:20;;;;;;;4.62;4.12;;;;;;;20.90;58.55;98585.08;2173134;81;20973;-79
2021/08/29 11:07:20;;;;;;;4.33;3.92;;;;;;;21.04;57.54;98578.43;2172660;82;20964;-80
2021/08/29 11:10:21;;;;;;;4.67;4.15;;;;;;;21.27;56.89;98571.89;2172945;81;20965;-80
2021/08/29 11:13:21;;;;;;;4.10;3.70;;;;;;;21.57;55.84;98568.13;2173028;81;20948;-79
2021/08/29 11:16:22;;;;;;;5.12;3.80;;;;;;;21.80;55.86;98573.94;2172045;82;21715;-80
2021/08/29 11:19:23;;;;;;;5.10;4.55;;;;;;;21.88;55.35;98570.53;2173087;81;20972;-80
2021/08/29 11:22:23;;;;;;;6.35;4.58;;;;;;;21.85;53.46;98573.77;2172846;81;21028;-79
2021/08/29 11:25:24;;;;;;;3.65;3.35;;;;;;;21.71;54.80;98574.75;2173666;82;20957;-79
2021/08/29 11:28:24;;;;;;;3.35;2.77;;;;;;;21.76;53.95;98572.78;2172847;82;21000;-81
2021/08/29 11:31:25;;;;;;;4.50;2.80;;;;;;;21.80;53.58;98566.43;2172894;81;20976;-79
2021/08/29 11:34:25;;;;;;;3.72;2.75;;;;;;;21.70;53.45;98569.03;2172807;81;20941;-81
2021/08/29 11:37:26;;;;;;;3.00;2.80;;;;;;;21.80;53.91;98569.09;2173146;81;21349;-80
2021/08/29 11:40:26;;;;;;;2.90;2.70;;;;;;;21.98;52.69;98567.05;2172740;81;20992;-80
2021/08/29 11:43:27;;;;;;;2.58;2.42;;;;;;;21.86;52.53;98566.20;2172536;82;20968;-80
2021/08/29 11:46:28;;;;;;;4.15;2.70;;;;;;;21.86;51.74;98560.42;2173135;81;20953;-80
2021/08/29 11:49:28;;;;;;;2.62;2.47;;;;;;;21.79;53.15;98562.91;2173106;82;21391;-80
2021/08/29 11:52:29;;;;;;;3.17;2.90;;;;;;;21.83;53.25;98558.34;2172517;81;20984;-80
2021/08/29 11:55:29;;;;;;;3.60;3.02;;;;;;;21.86;52.60;98555.11;2172624;81;21377;-79
2021/08/29 11:58:30;;;;;;;3.33;2.83;;;;;;;22.01;52.62;98554.98;2173059;81;21005;-81
2021/08/29 12:01:30;;;;;;;4.00;2.77;;;;;;;22.09;50.15;98556.91;2172360;81;21024;-79
2021/08/29 12:04:31;;;;;;;2.60;2.40;;;;;;;21.89;49.42;98548.34;2172738;82;21328;-79
2021/08/29 12:07:31;;;;;;;3.27;2.83;;;;;;;21.94;49.95;98542.86;2172861;81;21353;-81
2021/08/29 12:10:32;;;;;;;4.10;2.30;;;;;;;21.97;49.78;98541.41;2172674;81;20976;-81
2021/08/29 12:13:32;;;;;;;5.08;2.37;;;;;;;22.06;49.32;98536.23;2171697;81;20957;-80
2021/08/29 12:16:32;;;;;;;2.60;2.40;;;;;;;22.16;48.88;98535.80;2172478;81;21368;-81
2021/08/29 12:19:33;;;;;;;5.15;2.30;;;;;;;22.37;48.05;98541.19;2172048;81;20971;-80
2021/08/29 12:22:33;;;;;;;3.22;2.10;;;;;;;22.36;46.71;98542.11;2186737;81;21083;-79
2021/08/29 12:25:34;;;;;;;2.10;2.00;;;;;;;22.42;47.50;98536.08;2189384;81;20994;-80
2021/08/29 12:28:38;;;;;;;5.30;2.08;;;;;;;22.59;47.25;98539.88;2189394;81;20980;-80
2021/08/29 12:31:38;;;;;;;;;;;;;;;22.88;47.73;98539.08;2191982;81;20987;-82
2021/08/29 12:34:39;;;;;;;2.30;2.10;;;;;;;23.28;45.64;98540.47;2189388;81;20096;-82
2021/08/29 12:37:39;;;;;;;2.50;2.30;;;;;;;23.23;44.41;98534.02;2189592;81;20964;-79
2021/08/29 12:40:40;;;;;;;2.40;2.25;;;;;;;23.05;45.92;98533.50;2189057;81;21434;-79
2021/08/29 12:43:40;;;;;;;2.15;1.98;;;;;;;23.08;46.07;98531.56;2189441;81;21326;-80
2021/08/29 12:46:41;;;;;;;2.40;2.12;;;;;;;23.03;45.84;98526.91;2189438;81;20983;-81
2021/08/29 12:49:41;;;;;;;2.37;1.67;;;;;;;23.07;45.46;98526.31;2189524;81;20951;-80
2021/08/29 12:52:42;;;;;;;2.47;2.27;;;;;;;23.10;45.35;98520.38;2189322;81;21010;-80
2021/08/29 12:55:42;;;;;;;3.62;2.10;;;;;;;23.16;46.05;98517.92;2189209;81;21355;-80
2021/08/29 12:58:43;;;;;;;2.22;2.12;;;;;;;23.15;45.75;98509.53;2189224;81;21031;-80
2021/08/29 13:01:43;;;;;;;2.00;1.90;;;;;;;23.11;45.51;98513.27;2189116;81;21011;-80
2021/08/29 13:04:44;;;;;;;2.00;1.90;;;;;;;23.21;45.76;98510.59;2188918;81;20948;-80
2021/08/29 13:07:44;;;;;;;3.25;2.02;;;;;;;23.21;45.25;98514.59;2189347;81;21004;-81
2021/08/29 13:10:45;;;;;;;2.15;1.95;;;;;;;23.06;45.12;98511.27;2189432;81;20933;-81
2021/08/29 13:13:45;;;;;;;1.60;1.50;;;;;;;23.09;44.90;98512.00;2189886;81;21003;-80
2021/08/29 13:16:48;;;;;;;1.98;1.77;;;;;;;22.99;43.62;98512.47;2189628;81;20940;-80
2021/08/29 13:19:49;;;;;;;1.95;1.55;;;;;;;22.92;44.63;98510.54;2189842;81;21431;-80
2021/08/29 13:22:49;;;;;;;1.90;1.62;;;;;;;22.93;44.01;98503.42;2174344;81;21072;-79
2021/08/29 13:25:50;;;;;;;1.60;1.50;;;;;;;22.90;44.44;98504.88;2173043;82;20949;-80
2021/08/29 13:28:50;;;;;;;2.15;1.95;;;;;;;22.93;44.83;98508.28;2173147;81;21376;-81
2021/08/29 13:31:53;;;;;;;3.52;1.95;;;;;;;22.81;44.64;98505.68;2172604;81;20981;-80
2021/08/29 13:34:53;;;;;;;2.00;1.80;;;;;;;22.69;44.32;98505.30;2128000;83;21011;-79
2021/08/29 13:37:54;;;;;;;2.58;1.80;;;;;;;22.53;44.57;98501.92;2128540;84;21007;-80
2021/08/29 13:40:55;;;;;;;1.70;1.60;;;;;;;22.41;45.01;98503.77;2128380;84;21023;-79
2021/08/29 13:43:56;;;;;;;2.65;2.30;;;;;;;22.29;46.07;98498.95;2128119;84;21003;-80
2021/08/29 13:46:56;;;;;;;3.33;2.25;;;;;;;22.21;46.00;98504.58;2128457;84;20984;-81
2021/08/29 13:49:57;;;;;;;3.08;2.77;;;;;;;22.22;46.86;98498.34;2128467;84;20937;-80
2021/08/29 13:52:57;;;;;;;3.62;2.00;;;;;;;22.20;46.93;98502.85;2128558;84;20960;-81
2021/08/29 13:55:58;;;;;;;2.52;1.82;;;;;;;22.27;47.56;98495.95;2128595;84;20991;-81
2021/08/29 13:58:59;;;;;;;2.12;2.02;;;;;;;22.29;47.43;98492.30;2128522;84;21328;-80
2021/08/29 14:02:00;;;;;;;2.30;2.00;;;;;;;22.21;47.25;98497.94;2128309;84;20956;-80
2021/08/29 14:05:00;;;;;;;2.67;2.40;;;;;;;22.09;47.28;98498.43;2128400;84;20929;-81
2021/08/29 14:08:00;;;;;;;2.40;2.20;;;;;;;21.92;47.20;98496.88;2127830;84;20936;-81
2021/08/29 14:11:01;;;;;;;3.98;2.30;;;;;;;21.70;47.55;98489.34;2128286;84;20980;-82
2021/08/29 14:14:01;;;;;;;2.92;2.30;;;;;;;21.58;48.44;98486.20;2128029;84;21007;-80
2021/08/29 14:17:02;;;;;;;2.85;2.65;;;;;;;21.63;49.24;98485.56;2128185;84;20940;-81
2021/08/29 14:20:02;;;;;;;2.55;2.35;;;;;;;21.69;49.26;98488.94;2127953;84;21070;-80
2021/08/29 14:23:03;;;;;;;2.70;2.50;;;;;;;21.60;49.24;98483.02;2127782;83;21039;-81
2021/08/29 14:26:04;;;;;;;3.55;2.40;;;;;;;21.54;49.44;98490.36;2127930;84;20972;-81
2021/08/29 14:29:04;;;;;;;3.17;2.87;;;;;;;21.48;49.96;98494.57;2128074;84;21423;-81
2021/08/29 14:32:05;;;;;;;2.60;2.40;;;;;;;21.41;50.65;98497.92;2127653;84;21400;-80
2021/08/29 14:35:05;;;;;;;4.42;2.90;;;;;;;21.41;51.22;98499.70;2128123;84;21007;-81
2021/08/29 14:38:06;;;;;;;3.98;2.67;;;;;;;21.44;51.57;98502.25;2128284;84;20960;-80